Pietro Novelli — IOTQ — position and weather

sailwx.info

Track history (hours):
 
Tides and Currents Weather Stations Pressure Air Temp Water Temp Dewpoint Dewpoint Depression Visibility Wind Speed Wind Dir Waves Ship Positions

Pietro Novelli

Last reported at 2018-Mar-30 08:13 UTC. Time now 2018-Apr-21 21:11 UTC.
Position N 36°46' E 015°20'.
Warning: this ship's position is 22 days out of date.

Length 91 m; draft 3.8 m.

Type: Ship (hazmat cat A). MMSI: 247000300.

Date/timePositionNaut miles runAvg speedWind from/ knotsBaromVisibWave heightAir tempDewpointWater temp
2018-Mar-30 08:13N 36°46' E 015°20'914.7
2018-Mar-30 07:37N 36°38' E 015°14'320.4
2018-Mar-30 07:30N 36°36' E 015°12'815.2
2018-Mar-30 06:59N 36°34' E 015°03'816.0
2018-Mar-30 06:29N 36°33' E 014°53'1020.4
2018-Mar-30 06:00N 36°36' E 014°41'510.2
2018-Mar-30 05:29N 36°39' E 014°35'917.2
2018-Mar-30 04:58N 36°43' E 014°26'713.0
2018-Mar-30 04:28N 36°46' E 014°19'714.9
2018-Mar-30 03:58N 36°49' E 014°10'814.6
2018-Mar-30 03:27N 36°51' E 014°01'9413.8
2018-Mar-29 20:40N 37°41' E 012°22'623.1
2018-Mar-29 20:26N 37°47' E 012°21'22 2.3
2018-Mar-29 10:47N 37°25' E 012°15'  
Track history (hours):
 
Tides and Currents Weather Stations Pressure Air Temp Water Temp Dewpoint Dewpoint Depression Visibility Wind Speed Wind Dir Waves Ship Positions

Pietro Novelli

Last reported at 2018-Mar-30 08:13 UTC. Time now 2018-Apr-21 21:11 UTC.
Position N 36°46' E 015°20'.
Warning: this ship's position is 22 days out of date.

Length 91 m; draft 3.8 m.

Type: Ship (hazmat cat A). MMSI: 247000300.

Date/timePositionNaut miles runAvg speedWind from/ knotsBaromVisibWave heightAir tempDewpointWater temp
2018-Mar-30 08:13N 36°46' E 015°20'914.7
2018-Mar-30 07:37N 36°38' E 015°14'320.4
2018-Mar-30 07:30N 36°36' E 015°12'815.2
2018-Mar-30 06:59N 36°34' E 015°03'816.0
2018-Mar-30 06:29N 36°33' E 014°53'1020.4
2018-Mar-30 06:00N 36°36' E 014°41'510.2
2018-Mar-30 05:29N 36°39' E 014°35'917.2
2018-Mar-30 04:58N 36°43' E 014°26'713.0
2018-Mar-30 04:28N 36°46' E 014°19'714.9
2018-Mar-30 03:58N 36°49' E 014°10'814.6
2018-Mar-30 03:27N 36°51' E 014°01'9413.8
2018-Mar-29 20:40N 37°41' E 012°22'623.1
2018-Mar-29 20:26N 37°47' E 012°21'22 2.3
2018-Mar-29 10:47N 37°25' E 012°15'  

Dump ship's entire track history